sensor_id;sensor_type;location;lat;lon;timestamp;pressure;altitude;pressure_sealevel;temperature;humidity
6208;BME280;3137;51.550;7.060;2022-07-19T00:01:04;66325.59;;;20.09;74.96
6208;BME280;3137;51.550;7.060;2022-07-19T00:03:30;66311.56;;;20.03;75.12
6208;BME280;3137;51.550;7.060;2022-07-19T00:05:57;66306.69;;;20.01;75.51
6208;BME280;3137;51.550;7.060;2022-07-19T00:08:23;66306.91;;;19.97;75.31
6208;BME280;3137;51.550;7.060;2022-07-19T00:10:50;66304.69;;;19.95;75.64
6208;BME280;3137;51.550;7.060;2022-07-19T00:13:22;66302.59;;;19.95;75.19
6208;BME280;3137;51.550;7.060;2022-07-19T00:15:49;66307.16;;;19.92;76.27
6208;BME280;3137;51.550;7.060;2022-07-19T00:18:15;66290.88;;;19.85;76.57
6208;BME280;3137;51.550;7.060;2022-07-19T00:20:42;66295.44;;;19.82;77.13
6208;BME280;3137;51.550;7.060;2022-07-19T00:23:08;66284.97;;;19.74;77.82
6208;BME280;3137;51.550;7.060;2022-07-19T00:25:35;66266.06;;;19.67;77.96
6208;BME280;3137;51.550;7.060;2022-07-19T00:28:01;66276.81;;;19.62;78.25
6208;BME280;3137;51.550;7.060;2022-07-19T00:30:28;66252.84;;;19.50;78.68
6208;BME280;3137;51.550;7.060;2022-07-19T00:32:54;66249.34;;;19.44;79.61
6208;BME280;3137;51.550;7.060;2022-07-19T00:35:21;66253.09;;;19.45;79.88
6208;BME280;3137;51.550;7.060;2022-07-19T00:37:47;66234.56;;;19.36;80.71
6208;BME280;3137;51.550;7.060;2022-07-19T00:40:23;66239.13;;;19.33;80.82
6208;BME280;3137;51.550;7.060;2022-07-19T00:42:51;66226.06;;;19.25;81.62
6208;BME280;3137;51.550;7.060;2022-07-19T00:45:18;66226.59;;;19.26;81.81
6208;BME280;3137;51.550;7.060;2022-07-19T00:47:45;66221.19;;;19.23;82.06
6208;BME280;3137;51.550;7.060;2022-07-19T00:50:12;66229.47;;;19.21;82.38
6208;BME280;3137;51.550;7.060;2022-07-19T00:52:39;66229.09;;;19.23;82.09
6208;BME280;3137;51.550;7.060;2022-07-19T00:55:09;66227.72;;;19.27;81.84
6208;BME280;3137;51.550;7.060;2022-07-19T00:57:37;66216.88;;;19.22;81.68
6208;BME280;3137;51.550;7.060;2022-07-19T01:00:06;66222.72;;;19.22;81.67
6208;BME280;3137;51.550;7.060;2022-07-19T01:02:35;66222.16;;;19.22;81.77
6208;BME280;3137;51.550;7.060;2022-07-19T01:05:02;66219.53;;;19.22;81.31
6208;BME280;3137;51.550;7.060;2022-07-19T01:07:29;66213.19;;;19.14;80.69
6208;BME280;3137;51.550;7.060;2022-07-19T01:09:55;66226.06;;;19.09;80.30
6208;BME280;3137;51.550;7.060;2022-07-19T01:12:22;66210.25;;;19.09;80.69
6208;BME280;3137;51.550;7.060;2022-07-19T01:14:49;66205.94;;;19.07;81.69
6208;BME280;3137;51.550;7.060;2022-07-19T01:17:16;66208.97;;;19.05;82.53
6208;BME280;3137;51.550;7.060;2022-07-19T01:19:42;66206.91;;;19.06;82.54
6208;BME280;3137;51.550;7.060;2022-07-19T01:22:10;66190.63;;;18.98;83.26
6208;BME280;3137;51.550;7.060;2022-07-19T01:24:36;66193.09;;;18.95;83.78
6208;BME280;3137;51.550;7.060;2022-07-19T01:27:03;66187.66;;;18.93;84.20
6208;BME280;3137;51.550;7.060;2022-07-19T01:29:32;66197.09;;;18.92;84.52
6208;BME280;3137;51.550;7.060;2022-07-19T01:31:59;66186.00;;;18.91;84.47
6208;BME280;3137;51.550;7.060;2022-07-19T01:34:25;66189.03;;;18.89;84.32
6208;BME280;3137;51.550;7.060;2022-07-19T01:36:52;66186.81;;;18.87;84.47
6208;BME280;3137;51.550;7.060;2022-07-19T01:39:18;66183.44;;;18.84;85.50
6208;BME280;3137;51.550;7.060;2022-07-19T01:41:45;66169.81;;;18.77;86.06
6208;BME280;3137;51.550;7.060;2022-07-19T01:44:11;66165.75;;;18.70;86.15
6208;BME280;3137;51.550;7.060;2022-07-19T01:46:38;66160.34;;;18.68;86.58
6208;BME280;3137;51.550;7.060;2022-07-19T01:49:04;66156.97;;;18.65;86.45
6208;BME280;3137;51.550;7.060;2022-07-19T01:51:31;66165.59;;;18.68;86.61
6208;BME280;3137;51.550;7.060;2022-07-19T01:53:58;66171.00;;;18.70;86.51
6208;BME280;3137;51.550;7.060;2022-07-19T01:56:24;66156.38;;;18.64;86.92
6208;BME280;3137;51.550;7.060;2022-07-19T01:58:50;66157.19;;;18.60;87.48
6208;BME280;3137;51.550;7.060;2022-07-19T02:01:17;66157.16;;;18.67;87.53
6208;BME280;3137;51.550;7.060;2022-07-19T02:03:43;66151.53;;;18.62;87.84
6208;BME280;3137;51.550;7.060;2022-07-19T02:06:10;66151.38;;;18.60;87.78
6208;BME280;3137;51.550;7.060;2022-07-19T02:08:38;66156.63;;;18.60;87.78
6208;BME280;3137;51.550;7.060;2022-07-19T02:11:07;66154.56;;;18.60;87.97
6208;BME280;3137;51.550;7.060;2022-07-19T02:13:52;66147.88;;;18.54;88.34
6208;BME280;3137;51.550;7.060;2022-07-19T02:16:19;66147.72;;;18.52;88.41
6208;BME280;3137;51.550;7.060;2022-07-19T02:18:45;66136.88;;;18.47;88.54
6208;BME280;3137;51.550;7.060;2022-07-19T02:21:12;66135.44;;;18.40;88.68
6208;BME280;3137;51.550;7.060;2022-07-19T02:23:38;66131.13;;;18.39;88.75
6208;BME280;3137;51.550;7.060;2022-07-19T02:26:04;66131.28;;;18.41;88.65
6208;BME280;3137;51.550;7.060;2022-07-19T02:28:31;66132.41;;;18.42;88.22
6208;BME280;3137;51.550;7.060;2022-07-19T02:30:57;66143.09;;;18.45;88.05
6208;BME280;3137;51.550;7.060;2022-07-19T02:33:24;66140.84;;;18.43;88.14
6208;BME280;3137;51.550;7.060;2022-07-19T02:35:50;66137.81;;;18.45;87.81
6208;BME280;3137;51.550;7.060;2022-07-19T02:38:17;66141.25;;;18.41;87.96
6208;BME280;3137;51.550;7.060;2022-07-19T02:40:43;66121.94;;;18.35;88.11
6208;BME280;3137;51.550;7.060;2022-07-19T02:43:09;66129.84;;;18.35;88.64
6208;BME280;3137;51.550;7.060;2022-07-19T02:45:36;66128.72;;;18.34;88.59
6208;BME280;3137;51.550;7.060;2022-07-19T02:48:03;66121.25;;;18.32;88.90
6208;BME280;3137;51.550;7.060;2022-07-19T02:50:31;66123.31;;;18.32;88.90
6208;BME280;3137;51.550;7.060;2022-07-19T02:52:57;66130.09;;;18.31;88.50
6208;BME280;3137;51.550;7.060;2022-07-19T02:55:24;66121.78;;;18.33;88.19
6208;BME280;3137;51.550;7.060;2022-07-19T02:57:50;66126.50;;;18.32;88.61
6208;BME280;3137;51.550;7.060;2022-07-19T03:00:17;66122.97;;;18.27;89.34
6208;BME280;3137;51.550;7.060;2022-07-19T03:02:43;66107.84;;;18.20;89.36
6208;BME280;3137;51.550;7.060;2022-07-19T03:05:10;66113.91;;;18.16;89.61
6208;BME280;3137;51.550;7.060;2022-07-19T03:07:36;66118.03;;;18.15;89.73
6208;BME280;3137;51.550;7.060;2022-07-19T03:10:04;66104.91;;;18.15;89.77
6208;BME280;3137;51.550;7.060;2022-07-19T03:12:31;66105.28;;;18.13;90.12
6208;BME280;3137;51.550;7.060;2022-07-19T03:14:57;66106.81;;;18.12;90.03
6208;BME280;3137;51.550;7.060;2022-07-19T03:17:24;66101.41;;;18.09;90.12
6208;BME280;3137;51.550;7.060;2022-07-19T03:19:50;66102.91;;;18.08;89.99
6208;BME280;3137;51.550;7.060;2022-07-19T03:22:17;66103.84;;;18.07;90.23
6208;BME280;3137;51.550;7.060;2022-07-19T03:24:43;66099.88;;;18.10;90.29
6208;BME280;3137;51.550;7.060;2022-07-19T03:27:10;66095.97;;;18.07;90.03
6208;BME280;3137;51.550;7.060;2022-07-19T03:29:36;66091.34;;;18.00;89.38
6208;BME280;3137;51.550;7.060;2022-07-19T03:32:03;66081.47;;;17.94;89.41
6208;BME280;3137;51.550;7.060;2022-07-19T03:34:29;66073.25;;;17.88;89.91
6208;BME280;3137;51.550;7.060;2022-07-19T03:36:56;66075.34;;;17.88;90.37
6208;BME280;3137;51.550;7.060;2022-07-19T03:39:23;66074.78;;;17.87;90.70
6208;BME280;3137;51.550;7.060;2022-07-19T03:41:49;66082.41;;;17.92;91.08
6208;BME280;3137;51.550;7.060;2022-07-19T03:44:21;66083.53;;;17.93;90.74
6208;BME280;3137;51.550;7.060;2022-07-19T03:46:48;66084.09;;;17.94;90.45
6208;BME280;3137;51.550;7.060;2022-07-19T03:49:14;66088.94;;;17.96;90.59
6208;BME280;3137;51.550;7.060;2022-07-19T03:51:41;66096.28;;;17.95;90.72
6208;BME280;3137;51.550;7.060;2022-07-19T03:54:07;66074.53;;;17.92;90.57
6208;BME280;3137;51.550;7.060;2022-07-19T03:56:34;66080.75;;;17.91;90.61
6208;BME280;3137;51.550;7.060;2022-07-19T03:59:00;66081.16;;;17.88;90.52
6208;BME280;3137;51.550;7.060;2022-07-19T04:01:27;66075.50;;;17.91;90.90
6208;BME280;3137;51.550;7.060;2022-07-19T04:03:53;66077.72;;;17.93;90.39
6208;BME280;3137;51.550;7.060;2022-07-19T04:06:20;66085.94;;;17.98;90.12
6208;BME280;3137;51.550;7.060;2022-07-19T04:08:46;66091.91;;;18.01;89.64
6208;BME280;3137;51.550;7.060;2022-07-19T04:11:13;66090.56;;;18.04;89.15
6208;BME280;3137;51.550;7.060;2022-07-19T04:13:39;66095.41;;;18.06;88.93
6208;BME280;3137;51.550;7.060;2022-07-19T04:16:06;66107.34;;;18.12;88.46
6208;BME280;3137;51.550;7.060;2022-07-19T04:18:32;66107.34;;;18.12;88.46
6208;BME280;3137;51.550;7.060;2022-07-19T04:20:59;66101.00;;;18.11;87.99
6208;BME280;3137;51.550;7.060;2022-07-19T04:23:25;66106.41;;;18.14;88.18
6208;BME280;3137;51.550;7.060;2022-07-19T04:25:52;66105.28;;;18.13;88.58
6208;BME280;3137;51.550;7.060;2022-07-19T04:28:19;66110.16;;;18.15;88.74
6208;BME280;3137;51.550;7.060;2022-07-19T04:30:45;66104.34;;;18.14;88.72
6208;BME280;3137;51.550;7.060;2022-07-19T04:33:18;66107.53;;;18.15;89.44
6208;BME280;3137;51.550;7.060;2022-07-19T04:35:45;66110.31;;;18.18;89.88
6208;BME280;3137;51.550;7.060;2022-07-19T04:38:11;66113.84;;;18.23;90.13
6208;BME280;3137;51.550;7.060;2022-07-19T04:40:38;66110.66;;;18.23;89.89
6208;BME280;3137;51.550;7.060;2022-07-19T04:43:05;66123.94;;;18.25;89.29
6208;BME280;3137;51.550;7.060;2022-07-19T04:45:31;66137.22;;;18.28;89.72
6208;BME280;3137;51.550;7.060;2022-07-19T04:47:58;66124.81;;;18.31;89.48
6208;BME280;3137;51.550;7.060;2022-07-19T04:50:24;66132.09;;;18.37;90.15
6208;BME280;3137;51.550;7.060;2022-07-19T04:52:51;66136.53;;;18.41;89.86
6208;BME280;3137;51.550;7.060;2022-07-19T04:55:17;66138.38;;;18.46;89.51
6208;BME280;3137;51.550;7.060;2022-07-19T04:57:44;66146.19;;;18.53;89.86
6208;BME280;3137;51.550;7.060;2022-07-19T05:00:11;66151.78;;;18.58;89.29
6208;BME280;3137;51.550;7.060;2022-07-19T05:02:38;66155.13;;;18.61;88.52
6208;BME280;3137;51.550;7.060;2022-07-19T05:05:05;66158.66;;;18.66;88.70
6208;BME280;3137;51.550;7.060;2022-07-19T05:07:32;66169.66;;;18.74;88.69
6208;BME280;3137;51.550;7.060;2022-07-19T05:09:59;66181.22;;;18.82;88.91
6208;BME280;3137;51.550;7.060;2022-07-19T05:12:26;66183.78;;;18.89;88.23
6208;BME280;3137;51.550;7.060;2022-07-19T05:14:53;66199.41;;;19.04;86.57
6208;BME280;3137;51.550;7.060;2022-07-19T05:17:20;66219.34;;;19.19;85.06
6208;BME280;3137;51.550;7.060;2022-07-19T05:19:47;66232.91;;;19.34;83.84
6208;BME280;3137;51.550;7.060;2022-07-19T05:22:13;66248.53;;;19.48;82.66
6208;BME280;3137;51.550;7.060;2022-07-19T05:24:40;66265.31;;;19.64;82.56
6208;BME280;3137;51.550;7.060;2022-07-19T05:27:06;66288.31;;;19.77;81.67
6208;BME280;3137;51.550;7.060;2022-07-19T05:29:33;66301.72;;;19.90;81.64
6208;BME280;3137;51.550;7.060;2022-07-19T05:31:59;66312.50;;;20.02;80.78
6208;BME280;3137;51.550;7.060;2022-07-19T05:34:26;66328.31;;;20.19;78.64
6208;BME280;3137;51.550;7.060;2022-07-19T05:36:52;66335.91;;;20.30;78.04
6208;BME280;3137;51.550;7.060;2022-07-19T05:39:18;66354.78;;;20.45;77.49
6208;BME280;3137;51.550;7.060;2022-07-19T05:44:11;66389.13;;;20.72;75.93
6208;BME280;3137;51.550;7.060;2022-07-19T05:46:38;66400.72;;;20.80;75.82
6208;BME280;3137;51.550;7.060;2022-07-19T05:49:10;66408.69;;;20.89;76.67
6208;BME280;3137;51.550;7.060;2022-07-19T05:51:37;66409.56;;;20.95;76.29
6208;BME280;3137;51.550;7.060;2022-07-19T05:54:04;66424.50;;;21.06;75.16
6208;BME280;3137;51.550;7.060;2022-07-19T05:56:31;66436.41;;;21.20;73.69
6208;BME280;3137;51.550;7.060;2022-07-19T06:01:24;66473.75;;;21.51;71.32
6208;BME280;3137;51.550;7.060;2022-07-19T06:03:56;66496.94;;;21.67;69.53
6208;BME280;3137;51.550;7.060;2022-07-19T06:06:30;66492.53;;;21.73;70.12
6208;BME280;3137;51.550;7.060;2022-07-19T06:08:57;66506.38;;;21.83;70.70
6208;BME280;3137;51.550;7.060;2022-07-19T06:13:51;66537.19;;;22.11;70.15
6208;BME280;3137;51.550;7.060;2022-07-19T06:16:18;66551.31;;;22.27;69.62
6208;BME280;3137;51.550;7.060;2022-07-19T06:18:47;66569.66;;;22.41;68.42
6208;BME280;3137;51.550;7.060;2022-07-19T06:23:41;66597.66;;;22.66;67.19
6208;BME280;3137;51.550;7.060;2022-07-19T06:28:35;66626.22;;;22.92;65.86
6208;BME280;3137;51.550;7.060;2022-07-19T06:33:43;66655.78;;;23.17;63.13
6208;BME280;3137;51.550;7.060;2022-07-19T06:36:10;66664.88;;;23.27;62.87
6208;BME280;3137;51.550;7.060;2022-07-19T06:38:37;66680.56;;;23.42;61.58
6208;BME280;3137;51.550;7.060;2022-07-19T06:41:05;66696.69;;;23.54;61.84
6208;BME280;3137;51.550;7.060;2022-07-19T06:43:32;66710.88;;;23.69;61.34
6208;BME280;3137;51.550;7.060;2022-07-19T06:45:58;66727.28;;;23.86;59.94
6208;BME280;3137;51.550;7.060;2022-07-19T06:48:25;66743.53;;;24.01;59.58
6208;BME280;3137;51.550;7.060;2022-07-19T06:50:52;66765.81;;;24.19;58.11
6208;BME280;3137;51.550;7.060;2022-07-19T06:58:11;66807.88;;;24.57;57.28
6208;BME280;3137;51.550;7.060;2022-07-19T07:00:38;66815.91;;;24.67;56.54
6208;BME280;3137;51.550;7.060;2022-07-19T07:07:58;66837.22;;;24.86;56.74
6208;BME280;3137;51.550;7.060;2022-07-19T07:10:24;66856.16;;;25.01;55.97
6208;BME280;3137;51.550;7.060;2022-07-19T07:12:51;66874.69;;;25.18;54.96
6208;BME280;3137;51.550;7.060;2022-07-19T07:15:17;66889.97;;;25.34;55.41
6208;BME280;3137;51.550;7.060;2022-07-19T07:20:11;66910.59;;;25.50;54.82
6208;BME280;3137;51.550;7.060;2022-07-19T07:22:37;66912.44;;;25.55;53.86
6208;BME280;3137;51.550;7.060;2022-07-19T07:25:04;66925.91;;;25.67;54.01
6208;BME280;3137;51.550;7.060;2022-07-19T07:27:31;66946.13;;;25.85;52.38
6208;BME280;3137;51.550;7.060;2022-07-19T07:29:58;66966.34;;;26.03;53.09
6208;BME280;3137;51.550;7.060;2022-07-19T07:32:24;66984.75;;;26.18;52.05
6208;BME280;3137;51.550;7.060;2022-07-19T07:34:53;67001.72;;;26.35;52.73
6208;BME280;3137;51.550;7.060;2022-07-19T07:37:20;67020.69;;;26.50;50.05
6208;BME280;3137;51.550;7.060;2022-07-19T07:44:40;67056.66;;;26.83;49.65
6208;BME280;3137;51.550;7.060;2022-07-19T07:52:02;67089.84;;;27.13;48.04
6208;BME280;3137;51.550;7.060;2022-07-19T07:54:28;67099.00;;;27.24;47.75
6208;BME280;3137;51.550;7.060;2022-07-19T07:59:21;67121.88;;;27.42;47.23
6208;BME280;3137;51.550;7.060;2022-07-19T08:01:48;67139.59;;;27.53;45.61
6208;BME280;3137;51.550;7.060;2022-07-19T08:04:23;67144.94;;;27.63;45.34
6208;BME280;3137;51.550;7.060;2022-07-19T08:06:50;67161.81;;;27.78;45.27
6208;BME280;3137;51.550;7.060;2022-07-19T08:09:16;67168.00;;;27.84;44.26
6208;BME280;3137;51.550;7.060;2022-07-19T08:11:42;67180.38;;;27.95;44.85
6208;BME280;3137;51.550;7.060;2022-07-19T08:14:09;67188.97;;;28.05;43.80
6208;BME280;3137;51.550;7.060;2022-07-19T08:19:02;67223.16;;;28.34;43.88
6208;BME280;3137;51.550;7.060;2022-07-19T08:21:30;67248.63;;;28.59;42.21
6208;BME280;3137;51.550;7.060;2022-07-19T08:23:56;67264.38;;;28.73;43.19
6208;BME280;3137;51.550;7.060;2022-07-19T08:28:49;67303.63;;;29.06;42.04
6208;BME280;3137;51.550;7.060;2022-07-19T08:31:16;67317.28;;;29.21;40.65
6208;BME280;3137;51.550;7.060;2022-07-19T08:33:42;67326.31;;;29.29;41.16
6208;BME280;3137;51.550;7.060;2022-07-19T08:36:09;67341.34;;;29.41;40.16
6208;BME280;3137;51.550;7.060;2022-07-19T08:38:38;67346.00;;;29.47;40.19
6208;BME280;3137;51.550;7.060;2022-07-19T08:41:05;67363.91;;;29.61;38.19
6208;BME280;3137;51.550;7.060;2022-07-19T08:43:32;67379.81;;;29.78;37.51
6208;BME280;3137;51.550;7.060;2022-07-19T08:48:30;67423.19;;;30.17;36.67
6208;BME280;3137;51.550;7.060;2022-07-19T08:51:04;67449.13;;;30.40;33.42
6208;BME280;3137;51.550;7.060;2022-07-19T08:53:32;67467.56;;;30.55;32.22
6208;BME280;3137;51.550;7.060;2022-07-19T08:55:59;67478.84;;;30.65;33.27
6208;BME280;3137;51.550;7.060;2022-07-19T08:58:26;67496.34;;;30.81;32.08
6208;BME280;3137;51.550;7.060;2022-07-19T09:03:19;67534.09;;;31.15;31.21
6208;BME280;3137;51.550;7.060;2022-07-19T09:05:46;67552.16;;;31.31;30.51
6208;BME280;3137;51.550;7.060;2022-07-19T09:10:43;67562.31;;;31.40;30.28
6208;BME280;3137;51.550;7.060;2022-07-19T09:13:15;67552.28;;;31.34;30.79
6208;BME280;3137;51.550;7.060;2022-07-19T09:18:22;67564.00;;;31.42;30.34
6208;BME280;3137;51.550;7.060;2022-07-19T09:23:17;67610.25;;;31.84;27.83
6208;BME280;3137;51.550;7.060;2022-07-19T09:25:55;67618.88;;;31.94;28.54
6208;BME280;3137;51.550;7.060;2022-07-19T09:30:54;67630.44;;;31.99;27.99
6208;BME280;3137;51.550;7.060;2022-07-19T09:33:30;67627.34;;;32.01;28.24
6208;BME280;3137;51.550;7.060;2022-07-19T09:38:31;67675.16;;;32.42;26.73
6208;BME280;3137;51.550;7.060;2022-07-19T09:43:54;67701.13;;;32.66;25.69
6208;BME280;3137;51.550;7.060;2022-07-19T09:46:38;67705.19;;;32.72;26.20
6208;BME280;3137;51.550;7.060;2022-07-19T09:49:08;67717.34;;;32.78;25.75
6208;BME280;3137;51.550;7.060;2022-07-19T09:51:39;67735.00;;;32.96;24.41
6208;BME280;3137;51.550;7.060;2022-07-19T09:54:08;67731.06;;;32.93;25.60
6208;BME280;3137;51.550;7.060;2022-07-19T09:56:36;67740.22;;;33.03;24.28
6208;BME280;3137;51.550;7.060;2022-07-19T10:04:02;67763.94;;;33.25;24.94
6208;BME280;3137;51.550;7.060;2022-07-19T10:06:29;67771.28;;;33.31;25.27
6208;BME280;3137;51.550;7.060;2022-07-19T10:11:23;67757.16;;;33.19;24.91
6208;BME280;3137;51.550;7.060;2022-07-19T10:13:51;67771.72;;;33.29;24.55
6208;BME280;3137;51.550;7.060;2022-07-19T10:16:23;67783.16;;;33.42;24.39
6208;BME280;3137;51.550;7.060;2022-07-19T10:19:05;67786.97;;;33.43;24.62
6208;BME280;3137;51.550;7.060;2022-07-19T10:21:35;67797.16;;;33.52;24.03
6208;BME280;3137;51.550;7.060;2022-07-19T10:24:02;67798.84;;;33.54;24.02
6208;BME280;3137;51.550;7.060;2022-07-19T10:26:38;67822.56;;;33.75;24.08
6208;BME280;3137;51.550;7.060;2022-07-19T10:29:14;67819.75;;;33.73;23.36
6208;BME280;3137;51.550;7.060;2022-07-19T10:31:42;67827.19;;;33.82;23.68
6208;BME280;3137;51.550;7.060;2022-07-19T10:34:11;67854.09;;;34.01;22.88
6208;BME280;3137;51.550;7.060;2022-07-19T10:36:47;67849.81;;;34.02;23.81
6208;BME280;3137;51.550;7.060;2022-07-19T10:42:11;67862.84;;;34.04;22.62
6208;BME280;3137;51.550;7.060;2022-07-19T10:50:13;67870.16;;;34.20;23.32
6208;BME280;3137;51.550;7.060;2022-07-19T10:57:49;67893.75;;;34.39;21.86
6208;BME280;3137;51.550;7.060;2022-07-19T11:00:19;67896.16;;;34.44;21.72
6208;BME280;3137;51.550;7.060;2022-07-19T11:05:27;67894.75;;;34.38;21.98
6208;BME280;3137;51.550;7.060;2022-07-19T11:07:55;67880.91;;;34.30;22.50
6208;BME280;3137;51.550;7.060;2022-07-19T11:10:30;67896.59;;;34.42;22.68
6208;BME280;3137;51.550;7.060;2022-07-19T11:12:58;67917.38;;;34.58;21.36
6208;BME280;3137;51.550;7.060;2022-07-19T11:15:25;67922.47;;;34.63;21.91
6208;BME280;3137;51.550;7.060;2022-07-19T11:18:05;67934.47;;;34.76;20.67
6208;BME280;3137;51.550;7.060;2022-07-19T11:23:00;67917.06;;;34.63;21.05
6208;BME280;3137;51.550;7.060;2022-07-19T11:25:32;67916.38;;;34.60;21.86
6208;BME280;3137;51.550;7.060;2022-07-19T11:28:00;67929.81;;;34.69;22.90
6208;BME280;3137;51.550;7.060;2022-07-19T11:30:29;67930.50;;;34.72;21.08
6208;BME280;3137;51.550;7.060;2022-07-19T11:32:58;67930.63;;;34.75;20.76
6208;BME280;3137;51.550;7.060;2022-07-19T11:35:26;67924.28;;;34.67;21.05
6208;BME280;3137;51.550;7.060;2022-07-19T11:37:54;67928.38;;;34.73;20.49
6208;BME280;3137;51.550;7.060;2022-07-19T11:40:22;67927.13;;;34.69;20.34
6208;BME280;3137;51.550;7.060;2022-07-19T11:42:49;67921.03;;;34.66;20.77
6208;BME280;3137;51.550;7.060;2022-07-19T11:48:26;67966.03;;;35.02;19.41
6208;BME280;3137;51.550;7.060;2022-07-19T11:51:06;67968.41;;;35.07;19.74
6208;BME280;3137;51.550;7.060;2022-07-19T11:53:35;67967.41;;;35.08;19.64
6208;BME280;3137;51.550;7.060;2022-07-19T11:56:03;67976.31;;;35.14;20.39
6208;BME280;3137;51.550;7.060;2022-07-19T11:58:30;67978.69;;;35.18;19.87
6208;BME280;3137;51.550;7.060;2022-07-19T12:01:04;67970.09;;;35.08;19.51
6208;BME280;3137;51.550;7.060;2022-07-19T12:03:31;67980.28;;;35.17;19.52
6208;BME280;3137;51.550;7.060;2022-07-19T12:06:06;67975.06;;;35.10;19.84
6208;BME280;3137;51.550;7.060;2022-07-19T12:08:41;67958.78;;;34.98;20.54
6208;BME280;3137;51.550;7.060;2022-07-19T12:11:19;67951.44;;;34.91;20.06
6208;BME280;3137;51.550;7.060;2022-07-19T12:16:15;67966.50;;;35.12;19.27
6208;BME280;3137;51.550;7.060;2022-07-19T12:18:54;67970.78;;;35.11;19.31
6208;BME280;3137;51.550;7.060;2022-07-19T12:21:39;67985.13;;;35.17;20.00
6208;BME280;3137;51.550;7.060;2022-07-19T12:24:28;67992.13;;;35.28;20.21
6208;BME280;3137;51.550;7.060;2022-07-19T12:27:00;68000.06;;;35.35;19.79
6208;BME280;3137;51.550;7.060;2022-07-19T12:29:31;68014.78;;;35.48;19.48
6208;BME280;3137;51.550;7.060;2022-07-19T12:32:07;68022.84;;;35.58;19.21
6208;BME280;3137;51.550;7.060;2022-07-19T12:34:49;68010.38;;;35.47;18.76
6208;BME280;3137;51.550;7.060;2022-07-19T12:40:08;68010.13;;;35.42;19.19
6208;BME280;3137;51.550;7.060;2022-07-19T12:42:49;68010.94;;;35.47;20.34
6208;BME280;3137;51.550;7.060;2022-07-19T12:47:43;68024.38;;;35.57;19.11
6208;BME280;3137;51.550;7.060;2022-07-19T12:50:22;68024.38;;;35.57;19.58
6208;BME280;3137;51.550;7.060;2022-07-19T12:52:50;68007.56;;;35.44;19.58
6208;BME280;3137;51.550;7.060;2022-07-19T12:55:18;68006.41;;;35.43;19.75
6208;BME280;3137;51.550;7.060;2022-07-19T12:57:47;68019.88;;;35.53;19.65
6208;BME280;3137;51.550;7.060;2022-07-19T13:00:15;68024.16;;;35.52;19.48
6208;BME280;3137;51.550;7.060;2022-07-19T13:02:42;68007.00;;;35.44;19.46
6208;BME280;3137;51.550;7.060;2022-07-19T13:05:10;68012.25;;;35.41;18.77
6208;BME280;3137;51.550;7.060;2022-07-19T13:07:37;67999.50;;;35.35;19.52
6208;BME280;3137;51.550;7.060;2022-07-19T13:10:04;67999.06;;;35.37;20.82
6208;BME280;3137;51.550;7.060;2022-07-19T13:12:31;68008.56;;;35.43;20.47
6208;BME280;3137;51.550;7.060;2022-07-19T13:14:57;68017.63;;;35.51;19.87
6208;BME280;3137;51.550;7.060;2022-07-19T13:17:24;68033.56;;;35.68;19.94
6208;BME280;3137;51.550;7.060;2022-07-19T13:19:50;68030.06;;;35.62;20.08
6208;BME280;3137;51.550;7.060;2022-07-19T13:22:17;68033.47;;;35.65;20.20
6208;BME280;3137;51.550;7.060;2022-07-19T13:24:44;68036.84;;;35.68;19.97
6208;BME280;3137;51.550;7.060;2022-07-19T13:27:31;68053.56;;;35.78;19.71
6208;BME280;3137;51.550;7.060;2022-07-19T13:29:57;68069.66;;;35.98;19.30
6208;BME280;3137;51.550;7.060;2022-07-19T13:34:50;68065.56;;;35.92;19.10
6208;BME280;3137;51.550;7.060;2022-07-19T13:37:17;68070.22;;;35.98;19.94
6208;BME280;3137;51.550;7.060;2022-07-19T13:42:10;68092.28;;;36.18;18.15
6208;BME280;3137;51.550;7.060;2022-07-19T13:47:03;68088.47;;;36.17;18.87
6208;BME280;3137;51.550;7.060;2022-07-19T13:49:29;68088.91;;;36.15;18.01
6208;BME280;3137;51.550;7.060;2022-07-19T13:51:56;68073.75;;;36.04;18.45
6208;BME280;3137;51.550;7.060;2022-07-19T13:54:22;68063.56;;;35.95;18.70
6208;BME280;3137;51.550;7.060;2022-07-19T13:56:49;68066.84;;;35.95;18.98
6208;BME280;3137;51.550;7.060;2022-07-19T13:59:15;68057.22;;;35.87;19.42
6208;BME280;3137;51.550;7.060;2022-07-19T14:01:42;68055.63;;;35.88;19.48
6208;BME280;3137;51.550;7.060;2022-07-19T14:04:12;68060.16;;;35.92;19.54
6208;BME280;3137;51.550;7.060;2022-07-19T14:11:41;68061.19;;;35.90;19.43
6208;BME280;3137;51.550;7.060;2022-07-19T14:14:09;68063.44;;;35.92;19.20
6208;BME280;3137;51.550;7.060;2022-07-19T14:19:02;68070.38;;;36.01;18.91
6208;BME280;3137;51.550;7.060;2022-07-19T14:21:28;68064.13;;;35.95;19.56
6208;BME280;3137;51.550;7.060;2022-07-19T14:24:01;68062.88;;;35.92;18.99
6208;BME280;3137;51.550;7.060;2022-07-19T14:26:27;68057.31;;;35.89;19.32
6208;BME280;3137;51.550;7.060;2022-07-19T14:31:21;68073.63;;;36.01;18.69
6208;BME280;3137;51.550;7.060;2022-07-19T14:36:14;68066.41;;;35.97;19.14
6208;BME280;3137;51.550;7.060;2022-07-19T14:38:41;68065.84;;;35.97;19.23
6208;BME280;3137;51.550;7.060;2022-07-19T14:41:07;68066.41;;;35.97;19.58
6208;BME280;3137;51.550;7.060;2022-07-19T14:43:34;68068.53;;;35.97;18.86
6208;BME280;3137;51.550;7.060;2022-07-19T14:46:00;68064.56;;;35.93;19.46
6208;BME280;3137;51.550;7.060;2022-07-19T14:48:27;68065.72;;;35.94;19.25
6208;BME280;3137;51.550;7.060;2022-07-19T14:50:53;68079.84;;;36.07;18.51
6208;BME280;3137;51.550;7.060;2022-07-19T14:53:19;68094.56;;;36.20;17.26
6208;BME280;3137;51.550;7.060;2022-07-19T14:58:12;68105.31;;;36.30;17.88
6208;BME280;3137;51.550;7.060;2022-07-19T15:00:39;68109.00;;;36.28;17.32
6208;BME280;3137;51.550;7.060;2022-07-19T15:03:07;68117.91;;;36.44;17.14
6208;BME280;3137;51.550;7.060;2022-07-19T15:08:00;68113.25;;;36.37;17.63
6208;BME280;3137;51.550;7.060;2022-07-19T15:10:27;68109.25;;;36.33;17.57
6208;BME280;3137;51.550;7.060;2022-07-19T15:12:53;68097.19;;;36.30;17.92
6208;BME280;3137;51.550;7.060;2022-07-19T15:15:20;68109.81;;;36.34;16.80
6208;BME280;3137;51.550;7.060;2022-07-19T15:17:46;68113.25;;;36.37;16.91
6208;BME280;3137;51.550;7.060;2022-07-19T15:20:12;68108.81;;;36.35;16.92
6208;BME280;3137;51.550;7.060;2022-07-19T15:22:39;68109.81;;;36.34;17.31
6208;BME280;3137;51.550;7.060;2022-07-19T15:25:06;68112.81;;;36.39;16.79
6208;BME280;3137;51.550;7.060;2022-07-19T15:27:33;68113.38;;;36.40;16.49
6208;BME280;3137;51.550;7.060;2022-07-19T15:30:00;68119.03;;;36.45;15.82
6208;BME280;3137;51.550;7.060;2022-07-19T15:32:28;68138.84;;;36.62;14.95